ADDS METAR Data INFO
IDs: Format: Raw Decoded Include TAF

Data at: 1038 UTC 19 Oct 2017

KCQB 191010Z AUTO 00000KT 10SM CLR 11/08 A3011 RMK AO2 T01120082
KCQB 190950Z AUTO 00000KT 10SM CLR 12/08 A3011 RMK AO2 T01180078
KCQB 190930Z AUTO 15004KT 10SM CLR 13/08 A3010 RMK AO2 T01290077
KCQB 190910Z AUTO 16004KT 10SM CLR 13/08 A3010 RMK AO2 T01320078
KCQB 190850Z AUTO 16005KT 10SM CLR 14/08 A3010 RMK AO2 T01370078
KCQB 190830Z AUTO 16004KT 10SM CLR 14/08 A3011 RMK AO2 T01380079
KCQB 190810Z AUTO 16004KT 10SM CLR 14/08 A3010 RMK AO2 T01360079
KCQB 190750Z AUTO 15003KT 10SM CLR 12/08 A3010 RMK AO2 T01240082
KCQB 190730Z AUTO 00000KT 10SM CLR 14/08 A3010 RMK AO2 T01370079
KCQB 190710Z AUTO 18003KT 10SM CLR 13/08 A3010 RMK AO2
KCQB 190650Z AUTO 17003KT 10SM CLR 14/08 A3009 RMK AO2 T01380082
KCQB 190630Z AUTO 00000KT 10SM CLR 14/08 A3009 RMK AO2 T01350085
KCQB 190610Z AUTO 16004KT 10SM CLR 14/08 A3009 RMK AO2 T01430082
KCQB 190550Z AUTO 15005KT 10SM CLR 15/08 A3009 RMK AO2 T01500082 10190 20140
KCQB 190530Z AUTO 16006KT 10SM CLR 15/08 A3008 RMK AO2 T01540082
KCQB 190510Z AUTO 17006KT 10SM CLR 15/08 A3008 RMK AO2 T01520083
KCQB 190450Z AUTO 16007KT 10SM CLR 15/08 A3009 RMK AO2 T01470085
KCQB 190430Z AUTO 14005KT 10SM CLR 14/09 A3009 RMK AO2 T01440086
KCQB 190410Z AUTO 14006KT 10SM CLR 15/09 A3009 RMK AO2 T01460088
KCQB 190350Z AUTO 15006KT 10SM CLR 15/09 A3009 RMK AO2 T01460090
KCQB 190330Z AUTO 15006KT 10SM CLR 15/09 A3009 RMK AO2
KCQB 190310Z AUTO 15003KT 10SM CLR 15/09 A3009 RMK AO2 T01540090
KCQB 190250Z AUTO 15003KT 10SM CLR 16/09 A3009 RMK AO2 T01560092
KCQB 190230Z AUTO 14004KT 10SM CLR 15/09 A3008 RMK AO2 T01540095
KCQB 190210Z AUTO 14005KT 7SM CLR 16/10 A3008 RMK AO2 T01600097
KCQB 190150Z AUTO 14005KT 7SM CLR 16/10 A3008 RMK AO2 T01590100
KCQB 190130Z AUTO 15005KT 10SM CLR 17/10 A3007 RMK AO2 T01670102
KCQB 190110Z AUTO 15005KT 10SM CLR 17/10 A3006 RMK AO2 T01720103
KCQB 190050Z AUTO 15006KT 10SM CLR 18/11 A3006 RMK AO2 T01760107
KCQB 190030Z AUTO 14006KT 7SM CLR 18/11 A3006 RMK AO2 T01780107
KCQB 190010Z AUTO 15004KT 10SM CLR 18/11 A3005 RMK AO2 T01840107
KCQB 182350Z AUTO 14005KT 7SM CLR 19/11 A3004 RMK AO2 T01920107 10267 20191 402670096
KCQB 182330Z AUTO 15005KT 10SM CLR 21/10 A3004 RMK AO2 T02090105
KCQB 182310Z AUTO 15007KT 10SM CLR 22/10 A3004 RMK AO2 T02230102
KCQB 182250Z AUTO 15007KT 10SM CLR 23/10 A3004 RMK AO2 T02330097
KCQB 182230Z AUTO 16008G15KT 7SM CLR 25/10 A3004 RMK AO2 T02460096
KCQB 182210Z AUTO 15010KT 10SM CLR 25/09 A3004 RMK AO2 T02530091
KCQB 182150Z AUTO 16009G14KT 10SM CLR 26/09 A3004 RMK AO2 T02580089
KCQB 182130Z AUTO 17011G15KT 10SM CLR 26/09 A3004 RMK AO2 T02600090
KCQB 182110Z AUTO 16011G15KT 10SM CLR 27/10 A3004 RMK AO2 T02660096
KCQB 182050Z AUTO 17009G17KT 10SM CLR 26/08 A3003 RMK AO2 T02650084
KCQB 182030Z AUTO 17011G19KT 10SM CLR 26/08 A3003 RMK AO2 T02620085
KCQB 182010Z AUTO 18008G21KT 10SM CLR 26/09 A3003 RMK AO2 T02610088
KCQB 181950Z AUTO 19014G17KT 10SM CLR 26/09 A3004 RMK AO2 T02640091
KCQB 181930Z AUTO 19013G20KT 10SM CLR 26/09 A3005 RMK AO2 T02620088
KCQB 181910Z AUTO 18011G20KT 150V210 10SM CLR 26/09 A3005 RMK AO2 T02580091
KCQB 181850Z AUTO 18016G20KT 10SM CLR 25/09 A3006 RMK AO2 T02540086
KCQB 181830Z AUTO 18015KT 10SM CLR 25/09 A3007 RMK AO2 T02500088
KCQB 181810Z AUTO 18014KT 10SM CLR 25/09 A3008 RMK AO2 T02490093
KCQB 181750Z AUTO 20012G21KT 10SM CLR 24/09 A3009 RMK AO2 T02410090 10243 20098
KCQB 181730Z AUTO 19012KT 10SM CLR 24/09 A3010 RMK AO2 T02370095
KCQB 181710Z AUTO 19013KT 10SM CLR 23/09 A3012 RMK AO2 T02260093
KCQB 181650Z AUTO 18011KT 10SM CLR 22/09 A3012 RMK AO2 T02190093
KCQB 181630Z AUTO 18011G16KT 10SM CLR 21/09 A3012 RMK AO2 T02130090
KCQB 181610Z AUTO 18014G18KT 10SM CLR 20/08 A3012 RMK AO2 T02040084
KCQB 181550Z AUTO 19015G19KT 10SM CLR 20/08 A3012 RMK AO2 T01950079
KCQB 181530Z AUTO 18011KT 10SM CLR 19/08 A3012 RMK AO2 T01870078
KCQB 181510Z AUTO 18009G14KT 10SM CLR 18/08 A3012 RMK AO2 T01790077
KCQB 181450Z AUTO 18013G18KT 10SM CLR 17/07 A3011 RMK AO2 T01660072
KCQB 181430Z AUTO 17009G17KT 10SM CLR 16/07 A3011 RMK AO2 T01560069
KCQB 181410Z AUTO 17008KT 10SM CLR 15/07 A3011 RMK AO2 T01450068
KCQB 181350Z AUTO 16008KT 10SM CLR 13/07 A3011 RMK AO2 T01300066
KCQB 181330Z AUTO 15006KT 10SM CLR 12/06 A3010 RMK AO2 T01180064
KCQB 181310Z AUTO 15007KT 10SM CLR 11/06 A3010 RMK AO2 T01070061
KCQB 181250Z AUTO 15006KT 10SM CLR 10/06 A3010 RMK AO2 T01000059
KCQB 181230Z AUTO 15006KT 10SM CLR 10/06 A3011 RMK AO2 T00980058
KCQB 181210Z AUTO 16006KT 10SM CLR 10/06 A3010 RMK AO2 T01020058
KCQB 181150Z AUTO 16006KT 10SM CLR 10/06 A3011 RMK AO2 T01040057 10112 20096
KCQB 181130Z AUTO 16006KT 10SM CLR 11/06 A3011 RMK AO2 T01070057
KCQB 181110Z AUTO 16006KT 10SM CLR 10/06 A3011 RMK AO2 T01030057
KCQB 181050Z AUTO 15005KT 10SM CLR 10/06 A3010 RMK AO2 T01000058
KCQB 181030Z AUTO 15006KT 10SM CLR 11/06 A3009 RMK AO2 T01080058
KCQB 181010Z AUTO 16004KT 10SM CLR 11/06 A3009 RMK AO2 T01080059
KCQB 180950Z AUTO 15005KT 10SM CLR 10/06 A3009 RMK AO2 T00990060
KCQB 180930Z AUTO 14005KT 10SM CLR 10/06 A3009 RMK AO2 T00970061
KCQB 180910Z AUTO 15006KT 10SM CLR 10/06 A3009 RMK AO2 T00970062
KCQB 180850Z AUTO 14007KT 10SM CLR 10/06 A3009 RMK AO2 T00990062
KCQB 180830Z AUTO 14007KT 10SM CLR 10/06 A3010 RMK AO2 T00990063
KCQB 180810Z AUTO 14007KT 10SM CLR 10/06 A3010 RMK AO2 T00990063
KCQB 180750Z AUTO 14007KT 10SM CLR 10/06 A3010 RMK AO2 T01030063
KCQB 180730Z AUTO 15007KT 10SM CLR 11/06 A3011 RMK AO2 T01060064
KCQB 180710Z AUTO 15006KT 10SM CLR 11/07 A3011 RMK AO2 T01060065
KCQB 180650Z AUTO 15006KT 10SM CLR 10/07 A3012 RMK AO2 T01040066
KCQB 180630Z AUTO 15006KT 10SM CLR 11/07 A3012 RMK AO2 T01050068
KCQB 180610Z AUTO 14007KT 10SM CLR 11/07 A3012 RMK AO2 T01050070
KCQB 180550Z AUTO 14007KT 10SM CLR 11/07 A3013 RMK AO2 T01110071 10170 20106
KCQB 180530Z AUTO 14006KT 10SM CLR 11/07 A3014 RMK AO2 T01100072
KCQB 180510Z AUTO 14004KT 10SM CLR 11/07 A3015 RMK AO2 T01110073
KCQB 180450Z AUTO 14004KT 10SM CLR 11/07 A3015 RMK AO2 T01120074
KCQB 180430Z AUTO 16004KT 10SM CLR 11/08 A3015 RMK AO2 T01140075
KCQB 180410Z AUTO 16004KT 10SM CLR 11/08 A3015 RMK AO2 T01150078
KCQB 180350Z AUTO 15004KT 10SM CLR 12/08 A3015 RMK AO2 T01170079
KCQB 180330Z AUTO 15005KT 10SM CLR 12/08 A3014 RMK AO2 T01240080
KCQB 180310Z AUTO 15004KT 10SM CLR 13/08 A3014 RMK AO2 T01280081
KCQB 180250Z AUTO 16005KT 10SM CLR 13/08 A3014 RMK AO2 T01350081
KCQB 180230Z AUTO 15005KT 10SM CLR 13/08 A3014 RMK AO2 T01340081
KCQB 180210Z AUTO 14006KT 10SM CLR 13/08 A3013 RMK AO2 T01350084
KCQB 180150Z AUTO 14007KT 10SM CLR 14/09 A3013 RMK AO2 T01370085
KCQB 180130Z AUTO 14006KT 10SM CLR 14/08 A3013 RMK AO2 T01420085
KCQB 180110Z AUTO 14005KT 10SM CLR 15/09 A3013 RMK AO2 T01460087
KCQB 180050Z AUTO 14005KT 10SM CLR 15/09 A3013 RMK AO2 T01500086
KCQB 180030Z AUTO 15004KT 10SM CLR 16/08 A3012 RMK AO2 T01560084
KCQB 180010Z AUTO 15005KT 10SM CLR 16/08 A3012 RMK AO2 T01630082
KCQB 172350Z AUTO 15003KT 7SM CLR 17/08 A3012 RMK AO2 T01700082 10229 20169 402290065
KCQB 172330Z AUTO 17004KT 10SM CLR 19/08 A3012 RMK AO2 T01890079
KCQB 172310Z AUTO 16005KT 10SM CLR 20/07 A3012 RMK AO2 T02010071
KCQB 172250Z AUTO 18006KT 10SM CLR 21/07 A3013 RMK AO2 T02100069